Time;durP1;ratioP1;P1;durP2;ratioP2;P2;SDS_P1;SDS_P2;PMS_P1;PMS_P2;Temp;Humidity;BMP_temperature;BMP_pressure;BME280_temperature;BME280_humidity;BME280_pressure;Samples;Min_cycle;Max_cycle;Signal;HPM_P1;HPM_P2
2022/07/24 00:01:40;;;;;;;14.03;12.83;;;22.60;99.90;;;;;;5011472;28;20352;-59
2022/07/24 00:04:06;;;;;;;14.20;13.00;;;22.60;99.90;;;;;;5014021;28;20437;-59
2022/07/24 00:06:32;;;;;;;14.30;13.13;;;22.60;99.90;;;;;;5011715;28;20488;-60
2022/07/24 00:08:58;;;;;;;13.83;12.73;;;22.50;99.90;;;;;;5014682;28;20478;-60
2022/07/24 00:11:24;;;;;;;14.50;13.20;;;22.50;99.90;;;;;;5010935;28;20566;-60
2022/07/24 00:13:50;;;;;;;15.07;13.80;;;22.50;99.90;;;;;;5011792;28;20528;-60
2022/07/24 00:16:15;;;;;;;14.00;12.80;;;22.40;99.90;;;;;;5012483;28;20297;-59
2022/07/24 00:18:41;;;;;;;13.53;12.43;;;22.30;99.90;;;;;;5010692;28;20429;-59
2022/07/24 00:21:07;;;;;;;13.47;12.27;;;22.30;99.90;;;;;;5010959;28;20195;-60
2022/07/24 00:23:32;;;;;;;14.70;13.40;;;22.30;99.90;;;;;;5012258;28;20191;-59
2022/07/24 00:25:58;;;;;;;14.27;13.07;;;22.20;99.90;;;;;;5012838;28;20226;-60
2022/07/24 00:28:24;;;;;;;13.30;12.20;;;22.30;99.90;;;;;;5011894;28;20186;-59
2022/07/24 00:30:50;;;;;;;13.97;12.73;;;22.20;99.90;;;;;;5012359;28;20460;-59
2022/07/24 00:33:16;;;;;;;12.87;11.77;;;22.20;99.90;;;;;;5013061;28;20234;-59
2022/07/24 00:35:41;;;;;;;13.43;12.33;;;22.20;99.90;;;;;;5011682;28;20448;-60
2022/07/24 00:38:07;;;;;;;14.27;12.97;;;22.10;99.90;;;;;;5010955;28;20230;-60
2022/07/24 00:40:33;;;;;;;14.07;12.87;;;22.10;99.90;;;;;;5011088;28;20195;-60
2022/07/24 00:42:59;;;;;;;13.37;12.37;;;22.10;99.90;;;;;;5012696;28;20434;-60
2022/07/24 00:45:24;;;;;;;13.67;12.57;;;22.00;99.90;;;;;;5011709;28;20190;-60
2022/07/24 00:47:51;;;;;;;13.80;12.67;;;22.00;99.90;;;;;;5011090;28;20219;-60
2022/07/24 00:50:17;;;;;;;14.27;13.07;;;22.00;99.90;;;;;;5008620;28;20215;-60
2022/07/24 00:52:44;;;;;;;14.40;13.10;;;21.90;99.90;;;;;;5027159;28;20472;-59
2022/07/24 00:55:11;;;;;;;12.33;11.40;;;21.90;99.90;;;;;;5012539;28;20183;-60
2022/07/24 00:57:36;;;;;;;13.90;12.60;;;21.90;99.90;;;;;;5010862;28;20454;-59
2022/07/24 01:00:06;;;;;;;13.53;12.43;;;21.90;99.90;;;;;;5010265;28;20870;-59
2022/07/24 01:02:31;;;;;;;14.82;13.52;;;21.90;99.90;;;;;;5011503;28;20186;-60
2022/07/24 01:04:57;;;;;;;14.20;13.00;;;21.70;99.90;;;;;;5011449;28;20183;-60
2022/07/24 01:07:23;;;;;;;14.30;13.10;;;21.70;99.90;;;;;;5011640;28;20477;-60
2022/07/24 01:09:49;;;;;;;13.70;12.50;;;21.70;99.90;;;;;;5013760;28;20640;-60
2022/07/24 01:12:15;;;;;;;13.37;12.27;;;21.70;99.90;;;;;;5011946;28;20685;-60
2022/07/24 01:14:40;;;;;;;13.87;12.67;;;21.70;99.90;;;;;;5011176;28;20446;-60
2022/07/24 01:17:06;;;;;;;12.97;11.93;;;21.70;99.90;;;;;;5011690;28;20293;-60
2022/07/24 01:19:32;;;;;;;13.70;12.50;;;21.70;99.90;;;;;;5009758;28;20195;-59
2022/07/24 01:21:57;;;;;;;13.73;12.47;;;21.70;99.90;;;;;;5010258;28;20579;-59
2022/07/24 01:24:23;;;;;;;13.47;12.37;;;21.70;99.90;;;;;;5011671;28;20278;-60
2022/07/24 01:26:49;;;;;;;12.73;11.70;;;21.70;99.90;;;;;;5010806;28;20257;-60
2022/07/24 01:29:15;;;;;;;12.60;11.50;;;21.70;99.90;;;;;;5011025;28;20183;-59
2022/07/24 01:31:41;;;;;;;12.55;11.55;;;21.70;99.90;;;;;;5011817;28;20521;-60
2022/07/24 01:34:06;;;;;;;12.60;11.37;;;21.60;99.90;;;;;;5011632;28;20262;-60
2022/07/24 01:36:32;;;;;;;12.63;11.63;;;21.60;99.90;;;;;;5010202;28;20233;-59
2022/07/24 01:38:58;;;;;;;12.93;11.73;;;21.60;99.90;;;;;;5010112;28;20202;-60
2022/07/24 01:41:23;;;;;;;12.23;11.33;;;21.60;99.90;;;;;;5010433;28;20179;-61
2022/07/24 01:43:49;;;;;;;12.60;11.60;;;21.60;99.90;;;;;;5011131;28;20241;-60
2022/07/24 01:46:15;;;;;;;12.50;11.50;;;21.70;99.90;;;;;;5010736;28;20702;-60
2022/07/24 01:48:43;;;;;;;13.40;12.40;;;21.60;99.90;;;;;;5010738;28;20190;-60
2022/07/24 01:51:09;;;;;;;13.37;12.17;;;21.60;99.90;;;;;;5009002;28;20975;-60
2022/07/24 01:53:35;;;;;;;13.40;12.27;;;21.60;99.90;;;;;;5011105;28;20433;-60
2022/07/24 01:56:01;;;;;;;12.20;11.23;;;21.70;99.90;;;;;;5008852;28;20655;-60
2022/07/24 01:58:27;;;;;;;12.48;11.48;;;21.60;99.90;;;;;;5009356;28;21309;-60
2022/07/24 02:00:53;;;;;;;12.13;11.13;;;21.60;99.90;;;;;;5009093;28;20186;-60
2022/07/24 02:03:19;;;;;;;12.53;11.50;;;21.60;99.90;;;;;;5011150;28;20480;-60
2022/07/24 02:05:45;;;;;;;12.70;11.70;;;21.50;99.90;;;;;;5010078;28;20182;-60
2022/07/24 02:08:11;;;;;;;14.00;10.90;;;21.50;99.90;;;;;;5015509;28;20199;-60
2022/07/24 02:10:37;;;;;;;11.90;11.00;;;21.50;99.90;;;;;;5010795;28;20569;-60
2022/07/24 02:13:02;;;;;;;13.17;12.10;;;21.50;99.90;;;;;;5007472;28;20183;-60
2022/07/24 02:15:28;;;;;;;12.07;11.07;;;21.50;99.90;;;;;;5010031;28;20592;-60
2022/07/24 02:17:56;;;;;;;12.23;11.33;;;21.40;99.90;;;;;;5009467;28;20199;-60
2022/07/24 02:20:22;;;;;;;12.90;11.90;;;21.40;99.90;;;;;;5003583;28;20442;-60
2022/07/24 02:22:48;;;;;;;13.87;12.57;;;21.30;99.90;;;;;;5008482;28;20197;-60
2022/07/24 02:25:13;;;;;;;12.50;11.40;;;21.20;99.90;;;;;;5011541;28;20193;-60
2022/07/24 02:27:39;;;;;;;12.47;11.10;;;21.30;99.90;;;;;;5010437;28;20219;-60
2022/07/24 02:30:08;;;;;;;11.20;10.40;;;21.20;99.90;;;;;;5009798;28;20985;-60
2022/07/24 02:32:34;;;;;;;12.18;11.18;;;21.20;99.90;;;;;;5010679;28;20464;-60
2022/07/24 02:35:00;;;;;;;11.60;10.70;;;21.10;99.90;;;;;;5009547;28;20191;-60
2022/07/24 02:37:25;;;;;;;11.87;10.73;;;21.10;99.90;;;;;;5008998;28;20214;-60
2022/07/24 02:39:51;;;;;;;11.80;10.90;;;21.10;99.90;;;;;;5008069;28;20190;-60
2022/07/24 02:42:17;;;;;;;12.00;10.90;;;21.00;99.90;;;;;;5025081;28;20215;-60
2022/07/24 02:44:42;;;;;;;11.80;10.73;;;21.00;99.90;;;;;;5009382;28;20187;-60
2022/07/24 02:47:08;;;;;;;12.03;11.13;;;20.90;99.90;;;;;;5010004;28;20222;-60
2022/07/24 02:49:33;;;;;;;13.33;12.03;;;20.90;99.90;;;;;;5005495;28;20184;-60
2022/07/24 02:51:59;;;;;;;11.60;10.63;;;20.80;99.90;;;;;;5010396;28;20183;-60
2022/07/24 02:54:24;;;;;;;11.63;10.73;;;20.80;99.90;;;;;;5010627;28;20187;-60
2022/07/24 02:56:50;;;;;;;12.90;11.80;;;20.80;99.90;;;;;;5009249;28;20222;-60
2022/07/24 02:59:15;;;;;;;11.40;10.50;;;20.80;99.90;;;;;;5006647;28;20205;-60
2022/07/24 03:01:41;;;;;;;11.67;10.77;;;20.80;99.90;;;;;;5009538;28;20269;-60
2022/07/24 03:04:07;;;;;;;11.27;10.37;;;20.80;99.90;;;;;;5010133;28;20195;-60
2022/07/24 03:06:32;;;;;;;12.13;11.07;;;20.80;99.90;;;;;;5014974;28;20267;-60
2022/07/24 03:08:58;;;;;;;11.20;10.20;;;20.80;99.90;;;;;;5010396;28;20245;-60
2022/07/24 03:11:24;;;;;;;11.70;10.80;;;20.80;99.90;;;;;;5010237;28;20429;-60
2022/07/24 03:13:49;;;;;;;12.40;11.40;;;20.80;99.90;;;;;;5009898;28;20233;-60
2022/07/24 03:16:16;;;;;;;12.00;10.70;;;20.80;99.90;;;;;;5006760;28;20270;-60
2022/07/24 03:18:45;;;;;;;11.82;10.82;;;20.80;99.90;;;;;;5009132;28;20187;-60
2022/07/24 03:21:13;;;;;;;11.65;10.63;;;20.70;99.90;;;;;;5008197;28;20191;-60
2022/07/24 03:23:38;;;;;;;12.50;11.40;;;20.60;99.90;;;;;;5010299;28;20213;-60
2022/07/24 03:26:04;;;;;;;11.90;10.90;;;20.60;99.90;;;;;;5007868;28;20769;-60
2022/07/24 03:28:30;;;;;;;12.37;11.33;;;20.60;99.90;;;;;;5009403;28;20218;-60
2022/07/24 03:30:55;;;;;;;11.93;10.90;;;20.50;99.90;;;;;;5009919;28;20289;-60
2022/07/24 03:33:21;;;;;;;12.60;11.50;;;20.40;99.90;;;;;;5010676;28;20193;-60
2022/07/24 03:35:47;;;;;;;12.17;11.07;;;20.40;99.90;;;;;;5009069;28;20182;-60
2022/07/24 03:38:12;;;;;;;13.10;12.00;;;20.40;99.90;;;;;;5008989;28;20198;-61
2022/07/24 03:40:38;;;;;;;12.83;11.57;;;20.60;99.90;;;;;;5008591;28;20183;-60
2022/07/24 03:43:03;;;;;;;12.00;11.00;;;20.50;99.90;;;;;;5009805;28;20783;-60
2022/07/24 03:45:29;;;;;;;11.07;10.07;;;20.40;99.90;;;;;;5008730;28;20175;-60
2022/07/24 03:47:54;;;;;;;11.93;11.03;;;19.90;99.90;;;;;;5009828;28;20971;-60
2022/07/24 03:50:20;;;;;;;11.73;10.73;;;20.50;99.90;;;;;;5010384;28;20552;-60
2022/07/24 03:52:46;;;;;;;12.20;11.20;;;21.10;99.90;;;;;;5013749;28;20203;-60
2022/07/24 03:55:11;;;;;;;11.60;10.70;;;20.50;99.90;;;;;;5013197;28;20233;-60
2022/07/24 03:57:37;;;;;;;12.30;11.27;;;20.50;99.90;;;;;;5026736;28;20214;-60
2022/07/24 04:00:05;;;;;;;11.57;10.70;;;20.50;99.90;;;;;;5011846;28;20609;-60
2022/07/24 04:02:31;;;;;;;11.77;10.77;;;20.40;99.90;;;;;;5012015;28;20237;-67
2022/07/24 04:04:56;;;;;;;14.43;11.87;;;20.40;99.90;;;;;;5012109;28;20191;-60
2022/07/24 04:07:22;;;;;;;12.47;11.37;;;20.80;99.90;;;;;;5013758;28;20692;-61
2022/07/24 04:09:47;;;;;;;11.40;10.47;;;20.30;99.90;;;;;;5013101;28;20702;-61
2022/07/24 04:12:13;;;;;;;12.27;11.37;;;20.40;99.90;;;;;;5011973;28;20596;-61
2022/07/24 04:14:38;;;;;;;12.40;11.40;;;20.30;99.90;;;;;;5009519;28;20190;-61
2022/07/24 04:17:04;;;;;;;13.50;12.20;;;20.30;99.90;;;;;;5011437;28;20617;-60
2022/07/24 04:19:30;;;;;;;13.53;12.23;;;20.30;99.90;;;;;;5012294;28;20187;-60
2022/07/24 04:21:55;;;;;;;11.20;10.30;;;20.30;99.90;;;;;;5011403;28;20187;-60
2022/07/24 04:24:21;;;;;;;13.20;12.00;;;20.30;99.90;;;;;;5013778;28;20187;-60
2022/07/24 04:26:46;;;;;;;12.50;11.33;;;20.40;99.90;;;;;;5012532;28;20238;-60
2022/07/24 04:29:12;;;;;;;11.50;10.53;;;20.30;99.90;;;;;;5027696;28;20557;-60
2022/07/24 04:31:37;;;;;;;12.27;11.07;;;20.40;99.90;;;;;;5017733;28;20282;-60
2022/07/24 04:34:03;;;;;;;12.67;10.80;;;20.30;99.90;;;;;;5011734;28;20183;-60
2022/07/24 04:36:29;;;;;;;13.00;11.90;;;20.30;99.90;;;;;;5010574;28;20210;-60
2022/07/24 04:38:54;;;;;;;13.30;12.17;;;20.30;99.90;;;;;;5011498;28;20386;-60
2022/07/24 04:41:20;;;;;;;12.50;11.23;;;20.30;99.90;;;;;;5005781;28;20283;-60
2022/07/24 04:43:45;;;;;;;13.07;11.97;;;20.30;99.90;;;;;;5004956;28;20190;-60
2022/07/24 04:46:11;;;;;;;12.67;11.50;;;20.30;99.90;;;;;;5011305;28;20218;-60
2022/07/24 04:48:37;;;;;;;12.30;11.20;;;20.40;99.90;;;;;;5010118;28;20209;-60
2022/07/24 04:51:02;;;;;;;11.37;10.47;;;20.40;99.90;;;;;;5011056;28;20183;-60
2022/07/24 04:53:30;;;;;;;11.17;10.13;;;20.40;99.90;;;;;;5019488;28;20175;-60
2022/07/24 04:55:56;;;;;;;11.63;10.68;;;20.50;99.90;;;;;;5011607;28;20214;-60
2022/07/24 04:58:22;;;;;;;10.90;10.00;;;20.50;99.90;;;;;;5014936;28;20190;-60
2022/07/24 05:00:47;;;;;;;11.40;10.50;;;20.60;99.90;;;;;;5012023;28;20175;-60
2022/07/24 05:03:13;;;;;;;12.07;10.97;;;20.60;99.90;;;;;;5010793;28;20242;-60
2022/07/24 05:05:38;;;;;;;11.53;10.53;;;20.60;99.90;;;;;;5011263;28;20644;-60
2022/07/24 05:08:04;;;;;;;11.47;10.57;;;20.60;99.90;;;;;;5011309;28;20206;-60
2022/07/24 05:10:30;;;;;;;12.67;11.47;;;20.70;99.90;;;;;;5011300;28;20197;-60
2022/07/24 05:12:55;;;;;;;11.57;10.60;;;20.70;99.90;;;;;;5010961;28;20339;-60
2022/07/24 05:15:21;;;;;;;10.03;9.23;;;20.80;99.90;;;;;;5007324;28;20194;-60
2022/07/24 05:17:47;;;;;;;11.80;10.83;;;20.90;99.90;;;;;;5008777;28;20198;-60
2022/07/24 05:20:13;;;;;;;12.18;11.18;;;21.00;99.90;;;;;;5008703;28;20185;-60
2022/07/24 05:22:39;;;;;;;12.50;11.40;;;20.90;99.90;;;;;;5006090;28;20277;-60
2022/07/24 05:25:05;;;;;;;11.40;10.50;;;21.00;99.90;;;;;;5009187;28;20552;-60
2022/07/24 05:27:31;;;;;;;11.95;10.82;;;21.10;99.90;;;;;;5008175;28;20247;-60
2022/07/24 05:29:56;;;;;;;12.40;11.27;;;21.20;99.90;;;;;;5007356;28;20214;-60
2022/07/24 05:32:22;;;;;;;10.97;10.03;;;21.30;99.90;;;;;;5009128;28;20210;-57
2022/07/24 05:34:47;;;;;;;11.67;10.57;;;21.20;99.90;;;;;;5009622;28;20187;-57
2022/07/24 05:37:13;;;;;;;11.67;10.50;;;21.30;99.90;;;;;;5005736;28;20628;-51
2022/07/24 05:39:39;;;;;;;12.93;11.83;;;21.70;99.90;;;;;;5003885;28;20180;-54
2022/07/24 05:42:04;;;;;;;12.17;11.10;;;21.80;99.90;;;;;;5006678;28;20199;-62
2022/07/24 05:44:30;;;;;;;12.10;11.00;;;21.90;99.90;;;;;;5007998;28;20297;-62
2022/07/24 05:46:55;;;;;;;12.10;11.10;;;21.90;99.90;;;;;;5007872;28;20218;-62
2022/07/24 05:49:21;;;;;;;12.03;11.03;;;22.10;99.90;;;;;;5004478;28;20219;-62
2022/07/24 05:51:46;;;;;;;11.57;10.57;;;22.20;99.90;;;;;;5007914;28;20658;-59
2022/07/24 05:54:12;;;;;;;12.27;11.27;;;22.40;99.90;;;;;;5011267;28;20190;-59
2022/07/24 05:56:38;;;;;;;10.90;10.00;;;22.50;99.90;;;;;;5010464;28;20211;-60
2022/07/24 05:59:03;;;;;;;11.80;10.80;;;22.50;99.90;;;;;;5010595;28;20194;-60
2022/07/24 06:01:29;;;;;;;11.80;10.73;;;22.70;99.90;;;;;;5010782;28;20679;-59
2022/07/24 06:03:54;;;;;;;11.67;10.77;;;22.70;99.90;;;;;;5011158;28;20187;-60
2022/07/24 06:06:20;;;;;;;11.37;10.47;;;22.90;99.90;;;;;;5010534;28;20229;-59
2022/07/24 06:08:46;;;;;;;11.77;10.77;;;23.10;99.90;;;;;;5010777;28;20191;-59
2022/07/24 06:11:11;;;;;;;11.83;10.70;;;23.30;99.20;;;;;;5009595;28;20801;-59
2022/07/24 06:13:37;;;;;;;10.27;9.43;;;23.30;98.80;;;;;;5010610;28;20186;-59
2022/07/24 06:16:03;;;;;;;12.13;10.93;;;23.40;98.10;;;;;;5010130;28;20217;-59
2022/07/24 06:18:29;;;;;;;11.13;10.13;;;23.40;97.90;;;;;;5005642;28;20253;-59
2022/07/24 06:20:54;;;;;;;10.50;9.50;;;23.60;97.90;;;;;;5021442;28;20441;-59
2022/07/24 06:23:20;;;;;;;9.93;9.23;;;23.60;97.90;;;;;;5011268;28;20191;-59
2022/07/24 06:25:46;;;;;;;11.13;10.13;;;23.70;98.20;;;;;;5008924;28;20191;-58
2022/07/24 06:28:11;;;;;;;11.63;10.53;;;24.30;97.70;;;;;;5007373;28;20291;-59
2022/07/24 06:30:37;;;;;;;10.93;10.07;;;24.20;97.50;;;;;;5009878;28;20217;-59
2022/07/24 06:33:02;;;;;;;10.63;9.73;;;24.40;97.10;;;;;;5010020;28;20223;-59
2022/07/24 06:35:32;;;;;;;10.67;9.77;;;24.60;96.70;;;;;;5007241;28;20307;-60
2022/07/24 06:37:58;;;;;;;10.13;9.33;;;24.70;96.00;;;;;;5006976;28;20258;-59
2022/07/24 06:40:23;;;;;;;15.80;11.60;;;24.90;95.80;;;;;;5004099;28;20452;-59
2022/07/24 06:42:49;;;;;;;10.37;9.57;;;25.10;95.30;;;;;;5003254;28;20226;-58
2022/07/24 06:45:15;;;;;;;11.30;10.50;;;25.10;95.40;;;;;;5004903;28;20648;-59
2022/07/24 06:47:43;;;;;;;10.77;9.87;;;25.30;94.70;;;;;;5007031;28;20229;-59
2022/07/24 06:50:13;;;;;;;10.73;9.93;;;25.40;94.30;;;;;;5009632;28;20936;-60
2022/07/24 06:52:46;;;;;;;11.07;10.17;;;25.50;94.20;;;;;;5008150;28;20484;-59
2022/07/24 06:55:12;;;;;;;10.97;10.17;;;25.80;93.70;;;;;;5023635;28;20511;-59
2022/07/24 06:57:38;;;;;;;10.73;9.83;;;26.30;92.90;;;;;;5009132;28;20464;-59
2022/07/24 07:00:07;;;;;;;10.83;9.83;;;26.50;91.60;;;;;;5008053;28;20198;-58
2022/07/24 07:02:33;;;;;;;10.07;9.07;;;26.30;91.10;;;;;;5009682;28;20190;-59
2022/07/24 07:04:59;;;;;;;10.37;9.47;;;26.40;91.20;;;;;;5007989;28;20456;-59
2022/07/24 07:07:24;;;;;;;10.30;9.40;;;26.50;90.70;;;;;;5008975;28;20477;-59
2022/07/24 07:09:50;;;;;;;9.50;8.80;;;26.60;90.50;;;;;;5008258;28;20217;-58
2022/07/24 07:12:15;;;;;;;10.00;9.10;;;26.50;89.80;;;;;;5008577;28;20236;-60
2022/07/24 07:14:41;;;;;;;9.77;9.07;;;28.60;87.20;;;;;;5008858;28;20193;-59
2022/07/24 07:17:07;;;;;;;10.40;9.57;;;30.70;80.00;;;;;;5008573;28;20694;-61
2022/07/24 07:19:32;;;;;;;10.60;9.80;;;33.10;70.70;;;;;;5008857;28;20664;-60
2022/07/24 07:21:58;;;;;;;10.20;9.40;;;35.40;63.10;;;;;;5008174;28;20249;-59
2022/07/24 07:24:23;;;;;;;11.43;10.63;;;37.50;56.90;;;;;;5009152;28;20222;-60
2022/07/24 07:26:49;;;;;;;11.50;10.73;;;39.20;52.50;;;;;;5011848;28;20281;-60
2022/07/24 07:29:14;;;;;;;12.27;11.37;;;39.30;49.00;;;;;;5012654;28;20199;-60
2022/07/24 07:31:40;;;;;;;11.20;10.30;;;40.60;47.80;;;;;;5013756;28;20215;-62
2022/07/24 07:34:06;;;;;;;11.90;11.10;;;41.70;45.10;;;;;;5016264;28;20198;-62
2022/07/24 07:36:31;;;;;;;11.87;11.17;;;41.80;44.90;;;;;;5012453;28;20297;-62
2022/07/24 07:38:57;;;;;;;12.87;12.00;;;42.20;43.20;;;;;;5013068;28;20640;-62
2022/07/24 07:41:24;;;;;;;11.90;11.00;;;39.80;44.40;;;;;;5012859;28;20195;-62
2022/07/24 07:43:49;;;;;;;13.00;11.93;;;40.90;44.30;;;;;;5010062;28;20187;-62
2022/07/24 07:46:15;;;;;;;11.90;11.10;;;42.10;42.80;;;;;;5012519;28;20519;-62
2022/07/24 07:48:41;;;;;;;11.17;10.43;;;42.40;42.20;;;;;;5014676;28;20550;-62
2022/07/24 07:51:07;;;;;;;11.93;11.03;;;43.70;40.70;;;;;;5006369;28;20819;-61
2022/07/24 07:53:33;;;;;;;12.27;11.57;;;43.00;40.40;;;;;;5012425;28;20433;-62
2022/07/24 07:55:58;;;;;;;12.50;11.60;;;43.30;39.80;;;;;;5011303;28;20677;-62
2022/07/24 07:58:26;;;;;;;12.37;11.57;;;42.40;39.90;;;;;;5012968;28;20186;-62
2022/07/24 08:00:52;;;;;;;11.30;10.40;;;42.20;40.60;;;;;;5006756;28;20558;-61
2022/07/24 08:03:17;;;;;;;11.33;10.63;;;42.00;40.00;;;;;;5011546;28;20437;-62
2022/07/24 08:05:43;;;;;;;10.90;10.00;;;41.60;40.40;;;;;;4999766;28;20795;-59
2022/07/24 08:08:09;;;;;;;11.67;10.87;;;41.90;40.90;;;;;;5011610;28;20289;-59
2022/07/24 08:10:34;;;;;;;10.80;9.93;;;40.40;40.50;;;;;;5012339;28;20632;-60
2022/07/24 08:13:00;;;;;;;10.33;9.37;;;41.40;40.90;;;;;;5010308;28;20304;-60
2022/07/24 08:15:25;;;;;;;12.00;11.10;;;41.90;39.10;;;;;;5008060;28;20207;-60
2022/07/24 08:17:56;;;;;;;10.67;9.87;;;41.70;38.90;;;;;;5009664;28;20218;-60
2022/07/24 08:20:23;;;;;;;10.23;9.53;;;42.50;38.40;;;;;;5009679;28;20212;-60
2022/07/24 08:22:49;;;;;;;9.93;9.33;;;43.60;36.80;;;;;;5011295;28;20445;-60
2022/07/24 08:25:14;;;;;;;10.83;10.00;;;42.30;37.70;;;;;;5020255;28;20525;-60
2022/07/24 08:27:40;;;;;;;10.70;9.93;;;41.40;37.80;;;;;;5011219;28;20269;-60
2022/07/24 08:30:06;;;;;;;10.40;9.50;;;42.30;38.00;;;;;;5008873;28;20194;-59
2022/07/24 08:32:33;;;;;;;9.70;9.00;;;43.30;36.40;;;;;;5009136;28;20313;-60
2022/07/24 08:34:59;;;;;;;9.20;8.60;;;42.20;35.70;;;;;;5008171;28;20809;-60
2022/07/24 08:37:24;;;;;;;10.23;9.53;;;42.50;36.00;;;;;;5007324;28;20465;-60
2022/07/24 08:39:50;;;;;;;8.80;8.30;;;42.50;36.00;;;;;;5007038;28;20203;-60
2022/07/24 08:42:15;;;;;;;9.00;8.30;;;41.80;36.10;;;;;;5009771;28;20199;-60
2022/07/24 08:44:41;;;;;;;9.60;8.90;;;41.40;36.90;;;;;;5009700;28;20197;-60
2022/07/24 08:47:09;;;;;;;14.23;13.07;;;40.70;37.10;;;;;;5011913;28;20276;-60
2022/07/24 08:49:36;;;;;;;9.50;8.90;;;42.20;36.50;;;;;;5011518;28;20613;-60
2022/07/24 08:52:04;;;;;;;9.70;9.07;;;43.10;35.20;;;;;;5007567;28;20568;-60
2022/07/24 08:54:30;;;;;;;9.30;8.60;;;42.90;35.00;;;;;;5010104;28;20441;-60
2022/07/24 08:56:56;;;;;;;9.50;8.80;;;42.90;34.30;;;;;;5009790;28;20485;-60
2022/07/24 08:59:23;;;;;;;11.13;10.27;;;40.40;36.20;;;;;;5008838;28;20499;-60
2022/07/24 09:01:50;;;;;;;9.40;8.77;;;41.50;36.90;;;;;;5008554;28;20298;-60
2022/07/24 09:04:44;;;;;;;9.77;9.07;;;41.80;35.80;;;;;;5011680;28;20446;-60
2022/07/24 09:07:12;;;;;;;9.57;8.93;;;40.60;37.30;;;;;;5024325;28;20489;-64
2022/07/24 09:09:39;;;;;;;10.50;9.43;;;40.80;36.80;;;;;;5009061;28;20453;-60
2022/07/24 09:12:13;;;;;;;9.53;8.90;;;39.30;37.60;;;;;;5009612;28;20460;-60
2022/07/24 09:14:44;;;;;;;10.00;9.27;;;39.10;39.20;;;;;;5009169;28;20532;-60
2022/07/24 09:17:15;;;;;;;11.83;9.53;;;38.20;39.40;;;;;;5011206;28;20836;-60
2022/07/24 09:19:58;;;;;;;9.53;8.80;;;36.90;41.30;;;;;;5011836;28;20959;-59
2022/07/24 09:22:38;;;;;;;9.57;8.90;;;35.80;43.10;;;;;;5002492;28;20442;-60
2022/07/24 09:25:12;;;;;;;9.50;8.70;;;36.60;43.00;;;;;;5008611;28;20433;-60
2022/07/24 09:27:40;;;;;;;9.67;9.07;;;36.80;42.40;;;;;;5006206;28;20501;-60
2022/07/24 09:30:08;;;;;;;10.27;9.33;;;36.60;42.70;;;;;;5007633;28;20451;-60
2022/07/24 09:32:33;;;;;;;8.40;7.90;;;37.80;41.70;;;;;;5007792;28;20557;-60
2022/07/24 09:34:59;;;;;;;10.03;9.33;;;38.20;40.60;;;;;;5008879;28;20524;-60
2022/07/24 09:37:27;;;;;;;10.40;9.63;;;37.40;40.60;;;;;;5008111;28;20231;-61
2022/07/24 09:39:58;;;;;;;9.13;8.43;;;36.40;42.40;;;;;;5009279;28;20468;-59
2022/07/24 09:42:30;;;;;;;8.67;8.10;;;36.60;42.70;;;;;;5007970;28;20503;-60
2022/07/24 09:44:59;;;;;;;9.70;9.03;;;35.00;44.50;;;;;;5008720;28;20446;-60
2022/07/24 09:47:24;;;;;;;9.93;9.13;;;34.60;45.50;;;;;;5008236;28;20481;-59
2022/07/24 09:49:53;;;;;;;10.10;9.27;;;34.00;46.10;;;;;;5008716;28;20757;-59
2022/07/24 09:52:19;;;;;;;9.97;9.23;;;33.30;46.20;;;;;;5008553;28;20226;-59
2022/07/24 09:54:47;;;;;;;9.40;8.70;;;32.80;47.80;;;;;;5009311;28;20480;-60
2022/07/24 09:57:27;;;;;;;10.40;9.50;;;32.60;49.80;;;;;;5005657;28;20218;-60
2022/07/24 10:00:01;;;;;;;8.90;8.20;;;32.60;48.90;;;;;;5007784;28;20909;-59
2022/07/24 10:02:36;;;;;;;9.67;8.87;;;32.30;49.50;;;;;;5003858;28;20445;-59
2022/07/24 10:05:04;;;;;;;10.23;9.43;;;32.30;50.10;;;;;;5004283;28;20459;-59
2022/07/24 10:07:30;;;;;;;8.83;8.13;;;32.00;50.20;;;;;;5005207;28;21053;-60
2022/07/24 10:09:58;;;;;;;9.10;8.40;;;31.80;51.10;;;;;;5008840;28;20479;-59
2022/07/24 10:12:29;;;;;;;8.90;8.20;;;31.70;51.80;;;;;;5006588;28;20507;-59
2022/07/24 10:14:57;;;;;;;9.20;8.40;;;31.40;52.10;;;;;;5009115;28;20446;-59
2022/07/24 10:17:36;;;;;;;9.20;8.50;;;31.90;52.10;;;;;;5007652;28;20902;-59
2022/07/24 10:20:04;;;;;;;9.60;8.90;;;33.30;49.50;;;;;;5001347;28;20550;-59
2022/07/24 10:22:42;;;;;;;8.40;7.60;;;34.80;47.10;;;;;;5008701;28;20445;-60
2022/07/24 10:25:09;;;;;;;9.77;9.07;;;35.50;45.70;;;;;;5008442;28;20456;-62
2022/07/24 10:27:37;;;;;;;9.80;9.00;;;35.90;44.70;;;;;;5007466;28;20477;-62
2022/07/24 10:30:08;;;;;;;8.43;7.57;;;35.60;44.70;;;;;;5007047;28;20930;-62
2022/07/24 10:32:36;;;;;;;9.73;8.83;;;35.00;44.90;;;;;;5009180;28;20528;-62
2022/07/24 10:35:07;;;;;;;8.80;8.10;;;34.30;46.50;;;;;;5004068;28;20437;-62
2022/07/24 10:38:00;;;;;;;9.37;8.70;;;33.50;47.40;;;;;;5010882;28;20468;-61
2022/07/24 10:40:53;;;;;;;9.63;9.03;;;33.00;47.60;;;;;;5007406;28;20456;-61
2022/07/24 10:43:21;;;;;;;10.10;9.30;;;32.50;49.20;;;;;;5004891;28;20460;-61
2022/07/24 10:45:55;;;;;;;9.83;8.90;;;31.60;50.10;;;;;;5007055;28;20462;-59
2022/07/24 10:48:21;;;;;;;9.73;9.03;;;31.70;50.70;;;;;;5006362;28;20917;-59
2022/07/24 10:50:59;;;;;;;9.40;8.70;;;31.70;50.60;;;;;;5005052;28;20493;-60
2022/07/24 10:53:26;;;;;;;9.50;8.80;;;31.80;50.70;;;;;;5007394;28;20190;-59
2022/07/24 10:55:54;;;;;;;9.10;8.33;;;32.00;50.60;;;;;;5007472;28;20452;-59
2022/07/24 10:58:21;;;;;;;9.30;8.70;;;32.00;50.60;;;;;;5006537;28;20530;-60
2022/07/24 11:00:50;;;;;;;8.67;8.00;;;32.00;50.80;;;;;;5002902;28;20859;-60
2022/07/24 11:03:26;;;;;;;9.00;8.40;;;32.00;50.80;;;;;;5011850;28;20594;-59
2022/07/24 11:06:43;;;;;;;9.37;8.40;;;32.10;49.50;;;;;;5008203;28;20448;-59
2022/07/24 11:09:09;;;;;;;8.27;7.77;;;32.70;48.60;;;;;;4975512;28;20585;-59
2022/07/24 11:12:00;;;;;;;9.90;8.50;;;34.10;47.10;;;;;;5012131;28;20446;-59
2022/07/24 11:14:47;;;;;;;9.10;8.40;;;35.70;44.60;;;;;;5010574;28;20540;-59
2022/07/24 11:17:36;;;;;;;9.37;8.50;;;36.50;42.20;;;;;;5009806;28;20480;-60
2022/07/24 11:20:03;;;;;;;9.60;9.00;;;37.70;41.10;;;;;;5007934;28;20491;-59
2022/07/24 11:22:57;;;;;;;9.97;9.27;;;38.20;39.50;;;;;;5010608;28;20441;-60
2022/07/24 11:25:28;;;;;;;9.47;8.57;;;38.40;39.30;;;;;;5011151;28;20551;-60
2022/07/24 11:27:56;;;;;;;10.30;9.37;;;38.00;38.90;;;;;;5010725;28;20484;-60
2022/07/24 11:30:23;;;;;;;8.80;8.20;;;37.10;40.40;;;;;;5026032;28;20437;-59
2022/07/24 11:32:49;;;;;;;9.70;9.07;;;37.10;40.80;;;;;;5010732;28;20438;-61
2022/07/24 11:35:16;;;;;;;10.20;9.20;;;36.50;41.40;;;;;;5012511;28;20446;-60
2022/07/24 11:37:43;;;;;;;9.93;9.27;;;35.70;42.60;;;;;;5019087;28;20301;-60
2022/07/24 11:40:14;;;;;;;9.33;8.70;;;35.70;43.40;;;;;;5011722;28;20460;-59
2022/07/24 11:42:39;;;;;;;9.63;9.00;;;35.60;44.00;;;;;;5011622;28;20512;-59
2022/07/24 11:45:06;;;;;;;9.90;9.10;;;35.50;43.80;;;;;;5012015;28;20958;-62
2022/07/24 11:47:31;;;;;;;10.00;9.20;;;35.10;43.50;;;;;;5012896;28;20317;-62
2022/07/24 11:50:04;;;;;;;9.43;8.63;;;35.10;44.30;;;;;;5010642;28;20524;-64
2022/07/24 11:52:35;;;;;;;10.07;9.40;;;35.20;44.50;;;;;;5012244;28;20266;-59
2022/07/24 11:55:13;;;;;;;9.57;8.90;;;35.80;44.20;;;;;;5012106;28;20475;-61
2022/07/24 11:57:40;;;;;;;9.30;8.60;;;36.20;42.90;;;;;;5012121;28;20552;-60
2022/07/24 12:00:10;;;;;;;9.73;9.00;;;36.30;42.50;;;;;;5015090;28;20798;-58
2022/07/24 12:02:36;;;;;;;9.00;8.40;;;35.30;43.00;;;;;;5012742;28;20438;-59
2022/07/24 12:05:02;;;;;;;9.27;8.67;;;35.00;43.40;;;;;;5013178;28;20468;-60
2022/07/24 12:07:29;;;;;;;9.13;8.43;;;34.80;44.50;;;;;;5014521;28;20465;-60
2022/07/24 12:09:57;;;;;;;11.20;10.40;;;34.60;44.60;;;;;;5011438;28;20452;-59
2022/07/24 12:12:24;;;;;;;9.60;8.80;;;34.60;45.00;;;;;;5010702;28;20445;-58
2022/07/24 12:15:05;;;;;;;9.67;8.87;;;34.10;44.90;;;;;;5012127;28;20439;-59
2022/07/24 12:17:32;;;;;;;9.10;8.40;;;33.60;45.50;;;;;;5011580;28;20465;-60
2022/07/24 12:19:59;;;;;;;9.97;9.27;;;33.60;46.30;;;;;;5007812;28;20600;-59
2022/07/24 12:22:27;;;;;;;10.40;9.70;;;33.70;46.40;;;;;;5010923;28;20441;-59
2022/07/24 12:24:55;;;;;;;9.10;8.30;;;33.50;46.00;;;;;;5009843;28;20465;-59
2022/07/24 12:27:38;;;;;;;9.37;8.67;;;33.30;45.80;;;;;;5008798;28;20507;-59
2022/07/24 12:30:24;;;;;;;10.60;9.80;;;33.10;46.70;;;;;;5009471;28;20429;-60
2022/07/24 12:33:12;;;;;;;8.97;8.37;;;33.20;46.30;;;;;;5009782;28;20475;-60
2022/07/24 12:35:56;;;;;;;9.57;8.70;;;33.10;46.30;;;;;;5007470;28;20784;-60